Time;durP1;ratioP1;P1;durP2;ratioP2;P2;SDS_P1;SDS_P2;PMS_P1;PMS_P2;Temp;Humidity;BMP_temperature;BMP_pressure;BME280_temperature;BME280_humidity;BME280_pressure;Samples;Min_cycle;Max_cycle;Signal;HPM_P1;HPM_P2
2022/05/21 00:00:30;;;;;;;5.63;4.93;;;17.60;99.90;;;;;;4955764;28;20462;-85
2022/05/21 00:02:58;;;;;;;5.50;5.00;;;17.60;99.90;;;;;;4977298;28;20540;-85
2022/05/21 00:05:27;;;;;;;4.73;4.50;;;17.50;99.90;;;;;;4976319;28;20510;-85
2022/05/21 00:07:54;;;;;;;4.83;4.30;;;17.50;99.90;;;;;;4976359;28;20461;-85
2022/05/21 00:10:24;;;;;;;5.90;5.03;;;17.50;99.90;;;;;;4976028;28;20475;-85
2022/05/21 00:12:51;;;;;;;4.53;4.10;;;17.60;99.90;;;;;;4976578;28;20451;-86
2022/05/21 00:15:21;;;;;;;5.97;4.87;;;17.60;99.90;;;;;;4976821;28;20461;-85
2022/05/21 00:17:50;;;;;;;5.20;4.80;;;17.70;99.90;;;;;;4974992;28;20458;-85
2022/05/21 00:23:10;;;;;;;4.10;3.80;;;17.60;99.90;;;;;;4974611;28;20477;-85
2022/05/21 00:25:39;;;;;;;4.10;3.90;;;17.50;99.90;;;;;;4975049;28;20466;-84
2022/05/21 00:28:06;;;;;;;4.10;3.80;;;17.40;99.90;;;;;;4975022;28;20457;-85
2022/05/21 00:30:33;;;;;;;3.97;3.73;;;17.30;99.90;;;;;;4970255;28;20487;-85
2022/05/21 00:33:13;;;;;;;3.60;3.40;;;17.30;99.90;;;;;;4972227;28;20447;-84
2022/05/21 00:35:43;;;;;;;5.70;4.13;;;17.20;99.90;;;;;;4970299;28;20486;-86
2022/05/21 00:38:12;;;;;;;4.17;3.87;;;17.00;99.90;;;;;;4965558;28;20459;-86
2022/05/21 00:40:42;;;;;;;3.33;3.13;;;17.00;99.90;;;;;;4969369;28;20542;-84
2022/05/21 00:43:40;;;;;;;3.83;3.60;;;17.00;99.90;;;;;;4974379;28;20474;-85
2022/05/21 00:46:10;;;;;;;3.83;3.53;;;16.80;99.90;;;;;;4973589;28;20458;-85
2022/05/21 00:48:41;;;;;;;3.70;3.40;;;16.70;99.90;;;;;;4974712;28;20478;-85
2022/05/21 00:51:13;;;;;;;3.80;3.50;;;16.60;99.90;;;;;;4969391;28;20487;-84
2022/05/21 00:53:42;;;;;;;5.20;3.50;;;16.50;99.90;;;;;;4972158;28;20531;-85
2022/05/21 00:56:10;;;;;;;3.67;3.37;;;16.50;99.90;;;;;;4974213;28;20833;-85
2022/05/21 01:01:22;;;;;;;4.43;4.00;;;16.50;99.90;;;;;;4976236;28;20449;-85
2022/05/21 01:03:50;;;;;;;3.40;3.20;;;16.50;99.90;;;;;;4971454;28;20841;-85
2022/05/21 01:06:45;;;;;;;3.70;3.40;;;16.50;99.90;;;;;;4971901;28;20533;-85
2022/05/21 01:09:13;;;;;;;3.10;2.90;;;16.30;99.90;;;;;;4973050;28;20960;-84
2022/05/21 01:11:42;;;;;;;3.47;3.27;;;16.30;99.90;;;;;;4971155;28;20482;-84
2022/05/21 01:14:12;;;;;;;3.10;2.90;;;16.20;99.90;;;;;;4977701;28;20461;-85
2022/05/21 01:16:39;;;;;;;3.70;3.37;;;16.20;99.90;;;;;;4965088;28;20452;-84
2022/05/21 01:19:09;;;;;;;3.87;3.57;;;16.10;99.90;;;;;;4958733;28;20541;-85
2022/05/21 01:21:40;;;;;;;4.20;3.90;;;16.10;99.90;;;;;;4959272;28;20463;-83
2022/05/21 01:24:15;;;;;;;3.40;3.20;;;16.00;99.90;;;;;;4977413;28;20489;-84
2022/05/21 01:26:45;;;;;;;4.07;3.63;;;16.00;99.90;;;;;;4977567;28;20457;-85
2022/05/21 01:29:18;;;;;;;4.30;3.97;;;15.90;99.90;;;;;;4977435;28;20467;-82
2022/05/21 01:31:49;;;;;;;3.10;2.90;;;15.80;99.90;;;;;;4967325;28;20565;-86
2022/05/21 01:34:16;;;;;;;3.70;3.40;;;15.80;99.90;;;;;;4973269;28;20458;-84
2022/05/21 01:36:43;;;;;;;3.47;3.27;;;15.70;99.90;;;;;;4971672;28;20959;-84
2022/05/21 01:39:11;;;;;;;3.07;2.87;;;15.70;99.90;;;;;;4975558;28;20459;-84
2022/05/21 01:41:42;;;;;;;3.67;3.37;;;15.60;99.90;;;;;;4955729;28;20474;-85
2022/05/21 01:46:53;;;;;;;3.07;2.83;;;15.50;99.90;;;;;;4969691;28;20450;-84
2022/05/21 01:49:20;;;;;;;3.00;2.80;;;15.50;99.90;;;;;;4976370;28;20461;-84
2022/05/21 01:51:46;;;;;;;3.13;2.97;;;15.40;99.90;;;;;;4976350;28;20858;-85
2022/05/21 01:54:15;;;;;;;3.10;2.77;;;15.50;99.90;;;;;;4976433;28;20456;-85
2022/05/21 01:56:42;;;;;;;5.13;2.70;;;15.40;99.90;;;;;;4977978;28;20550;-85
2022/05/21 01:59:10;;;;;;;2.33;2.23;;;15.40;99.90;;;;;;4976729;28;20553;-85
2022/05/21 02:01:37;;;;;;;3.40;3.20;;;15.30;99.90;;;;;;4975957;28;20495;-84
2022/05/21 02:04:03;;;;;;;3.00;2.80;;;15.20;99.90;;;;;;4976310;28;20488;-85
2022/05/21 02:06:33;;;;;;;2.77;2.57;;;15.20;99.90;;;;;;4976073;28;20447;-84
2022/05/21 02:09:03;;;;;;;4.53;3.67;;;15.20;99.90;;;;;;4976281;28;20476;-84
2022/05/21 02:11:34;;;;;;;2.47;2.27;;;15.10;99.90;;;;;;4975760;28;20472;-85
2022/05/21 02:14:01;;;;;;;2.87;2.67;;;15.10;99.90;;;;;;4975735;28;20959;-85
2022/05/21 02:16:28;;;;;;;3.13;2.90;;;15.00;99.90;;;;;;4975873;28;20537;-85
2022/05/21 02:18:55;;;;;;;2.50;2.30;;;15.00;99.90;;;;;;4976198;28;20452;-85
2022/05/21 02:21:22;;;;;;;2.90;2.70;;;15.00;99.90;;;;;;4975562;28;20477;-85
2022/05/21 02:24:04;;;;;;;3.07;2.87;;;15.00;99.90;;;;;;4975625;28;20856;-85
2022/05/21 02:26:55;;;;;;;2.93;2.13;;;15.00;99.90;;;;;;4976701;28;20976;-84
2022/05/21 02:29:23;;;;;;;2.60;2.40;;;15.00;99.90;;;;;;4971492;28;20548;-84
2022/05/21 02:31:54;;;;;;;3.70;2.50;;;15.00;99.90;;;;;;4975298;28;20904;-85
2022/05/21 02:34:26;;;;;;;2.57;2.37;;;14.80;99.90;;;;;;4976266;28;20479;-84
2022/05/21 02:39:44;;;;;;;3.10;2.90;;;14.60;99.90;;;;;;4974900;28;20408;-85
2022/05/21 02:42:58;;;;;;;2.60;2.40;;;14.60;99.90;;;;;;4975485;28;20476;-84
2022/05/21 02:45:40;;;;;;;3.93;3.67;;;14.50;99.90;;;;;;4976006;28;20524;-85
2022/05/21 02:48:07;;;;;;;2.73;2.53;;;14.40;99.90;;;;;;4976384;28;20763;-85
2022/05/21 02:50:35;;;;;;;2.93;2.60;;;14.40;99.90;;;;;;4975381;28;21001;-84
2022/05/21 02:53:17;;;;;;;2.40;2.30;;;14.30;99.90;;;;;;4979524;28;20451;-85
2022/05/21 02:55:46;;;;;;;2.73;2.53;;;14.30;99.90;;;;;;4977412;28;20479;-85
2022/05/21 02:59:07;;;;;;;3.00;2.67;;;14.30;99.90;;;;;;4968108;28;20519;-86
2022/05/21 03:02:00;;;;;;;3.80;2.30;;;14.30;99.90;;;;;;4941039;28;20470;-84
2022/05/21 03:04:27;;;;;;;2.77;2.57;;;14.20;99.90;;;;;;4969012;28;20488;-84
2022/05/21 03:06:54;;;;;;;2.80;2.60;;;14.20;99.90;;;;;;4970668;28;20459;-83
2022/05/21 03:12:06;;;;;;;2.63;2.43;;;14.10;99.90;;;;;;4972505;28;20459;-84
2022/05/21 03:14:37;;;;;;;3.30;3.00;;;14.10;99.90;;;;;;4972315;28;20528;-84
2022/05/21 03:17:04;;;;;;;2.87;2.67;;;14.00;99.90;;;;;;4973562;28;20968;-84
2022/05/21 03:19:33;;;;;;;3.03;2.80;;;14.00;99.90;;;;;;4970753;28;20451;-84
2022/05/21 03:22:00;;;;;;;2.83;2.63;;;14.00;99.90;;;;;;4973922;28;20490;-83
2022/05/21 03:24:28;;;;;;;3.50;3.20;;;14.00;99.90;;;;;;4973919;28;20484;-84
2022/05/21 03:26:56;;;;;;;3.07;2.87;;;13.90;99.90;;;;;;4974465;28;20464;-83
2022/05/21 03:29:45;;;;;;;3.53;3.33;;;13.90;99.90;;;;;;4974094;28;20487;-83
2022/05/21 03:39:26;;;;;;;4.23;3.87;;;13.70;99.90;;;;;;4923044;29;20450;-83
2022/05/21 03:42:02;;;;;;;3.77;3.47;;;13.70;99.90;;;;;;4932910;29;20885;-84
2022/05/21 03:57:30;;;;;;;4.30;3.93;;;13.50;99.90;;;;;;4954201;28;20787;-84
2022/05/21 04:00:19;;;;;;;4.20;3.90;;;13.40;99.90;;;;;;4974372;28;20483;-84
2022/05/21 04:02:53;;;;;;;4.27;3.87;;;13.40;99.90;;;;;;4974335;28;20471;-84
2022/05/21 04:05:20;;;;;;;3.10;2.90;;;13.40;99.90;;;;;;4974654;28;20857;-84
2022/05/21 04:07:51;;;;;;;4.07;3.77;;;13.30;99.90;;;;;;4974269;28;20996;-84
2022/05/21 04:10:19;;;;;;;4.83;4.47;;;13.30;99.90;;;;;;4973723;28;22336;-84
2022/05/21 04:12:46;;;;;;;3.97;3.77;;;13.30;99.90;;;;;;4974203;28;20942;-83
2022/05/21 04:15:13;;;;;;;5.00;4.60;;;13.20;99.90;;;;;;4975306;28;20447;-84
2022/05/21 04:17:41;;;;;;;4.97;3.97;;;13.20;99.90;;;;;;4977181;28;20459;-84
2022/05/21 04:20:11;;;;;;;4.20;3.90;;;13.20;99.90;;;;;;4976241;28;20462;-83
2022/05/21 04:22:39;;;;;;;4.20;3.90;;;13.10;99.90;;;;;;4976750;28;20940;-84
2022/05/21 04:25:08;;;;;;;4.13;3.80;;;13.10;99.90;;;;;;4976554;28;20486;-83
2022/05/21 04:28:11;;;;;;;4.60;4.30;;;13.10;99.90;;;;;;4977506;28;20455;-84
2022/05/21 04:30:37;;;;;;;4.00;3.73;;;13.10;99.90;;;;;;4936730;29;20481;-85
2022/05/21 04:33:04;;;;;;;3.67;3.47;;;13.00;99.90;;;;;;4968741;28;20533;-83
2022/05/21 04:38:14;;;;;;;4.40;4.00;;;13.10;99.90;;;;;;4976746;28;20439;-83
2022/05/21 04:40:43;;;;;;;4.60;4.17;;;13.20;99.90;;;;;;4976219;28;20491;-85
2022/05/21 04:43:12;;;;;;;4.23;3.83;;;13.20;99.90;;;;;;4976781;28;20801;-83
2022/05/21 04:45:40;;;;;;;3.57;3.27;;;13.20;99.90;;;;;;4977018;28;20456;-83
2022/05/21 04:48:09;;;;;;;4.30;4.00;;;13.20;99.90;;;;;;4978550;28;20470;-83
2022/05/21 04:50:38;;;;;;;3.53;3.33;;;13.30;99.90;;;;;;4978492;28;20471;-83
2022/05/21 04:53:05;;;;;;;3.70;3.50;;;13.30;99.90;;;;;;4978125;28;20452;-84
2022/05/21 04:55:32;;;;;;;4.07;3.63;;;13.40;99.90;;;;;;4977168;28;20891;-84
2022/05/21 04:58:00;;;;;;;2.70;2.53;;;13.50;99.90;;;;;;4977855;28;20820;-84
2022/05/21 05:00:28;;;;;;;4.13;3.83;;;13.50;99.90;;;;;;4977043;28;20477;-84
2022/05/21 05:02:54;;;;;;;3.50;3.20;;;13.50;99.90;;;;;;4977335;28;20509;-82
2022/05/21 05:05:22;;;;;;;5.47;5.17;;;13.60;99.90;;;;;;4977159;28;20451;-83
2022/05/21 05:07:49;;;;;;;3.37;3.17;;;13.60;99.90;;;;;;4977261;28;20461;-83
2022/05/21 05:10:17;;;;;;;3.50;3.27;;;13.70;99.90;;;;;;4976502;28;20455;-83
2022/05/21 05:12:43;;;;;;;4.50;3.90;;;13.80;99.90;;;;;;4977074;28;20954;-84
2022/05/21 05:15:11;;;;;;;4.10;3.70;;;13.80;99.90;;;;;;4976483;28;20864;-84
2022/05/21 05:17:38;;;;;;;4.17;3.77;;;13.70;99.90;;;;;;4977406;28;20466;-85
2022/05/21 05:20:06;;;;;;;4.87;4.40;;;13.70;99.90;;;;;;4976484;28;20462;-83
2022/05/21 05:22:33;;;;;;;5.37;4.20;;;13.70;99.90;;;;;;4977204;28;20466;-83
2022/05/21 05:25:02;;;;;;;4.97;4.57;;;13.70;99.90;;;;;;4975953;28;20457;-83
2022/05/21 05:27:29;;;;;;;4.00;3.70;;;13.70;99.90;;;;;;4975193;28;20543;-83
2022/05/21 05:29:56;;;;;;;3.00;2.67;;;13.80;99.90;;;;;;4976531;28;20463;-84
2022/05/21 05:32:24;;;;;;;3.30;3.10;;;13.90;99.90;;;;;;4975744;28;20642;-84
2022/05/21 05:34:51;;;;;;;4.07;3.80;;;13.90;99.90;;;;;;4975965;28;20488;-83
2022/05/21 05:37:17;;;;;;;4.00;3.43;;;14.00;99.90;;;;;;4976327;28;20455;-83
2022/05/21 05:39:44;;;;;;;4.13;3.10;;;14.10;99.90;;;;;;4975884;28;20818;-83
2022/05/21 05:42:11;;;;;;;5.07;3.27;;;14.10;99.90;;;;;;4975346;28;20471;-83
2022/05/21 05:44:38;;;;;;;2.73;2.53;;;14.20;99.90;;;;;;4975760;28;20446;-82
2022/05/21 05:47:05;;;;;;;2.70;2.50;;;14.20;99.90;;;;;;4975387;28;20457;-83
2022/05/21 05:49:33;;;;;;;3.90;2.50;;;14.30;99.90;;;;;;4975483;28;20455;-83
2022/05/21 05:52:00;;;;;;;3.17;2.87;;;14.40;99.90;;;;;;4975125;28;20486;-83
2022/05/21 05:54:27;;;;;;;3.47;2.47;;;14.40;99.90;;;;;;4975401;28;20510;-85
2022/05/21 05:56:53;;;;;;;3.60;2.50;;;14.50;99.90;;;;;;4975360;28;20462;-85
2022/05/21 06:04:51;;;;;;;1.67;1.57;;;14.40;99.90;;;;;;4971050;28;20487;-84
2022/05/21 06:07:18;;;;;;;2.80;2.40;;;14.60;99.90;;;;;;4974939;28;20455;-84
2022/05/21 06:09:45;;;;;;;1.50;1.40;;;14.60;99.90;;;;;;4975566;28;20458;-83
2022/05/21 06:12:12;;;;;;;3.03;1.87;;;14.60;99.90;;;;;;4975287;28;21440;-84
2022/05/21 06:14:39;;;;;;;2.13;1.93;;;14.60;99.90;;;;;;4975940;28;21083;-84
2022/05/21 06:17:06;;;;;;;2.37;2.17;;;14.70;99.90;;;;;;4975805;28;20479;-85
2022/05/21 06:19:33;;;;;;;2.50;1.73;;;14.80;99.90;;;;;;4976044;28;20467;-84
2022/05/21 06:22:03;;;;;;;1.33;1.23;;;14.80;99.90;;;;;;4975396;28;20528;-84
2022/05/21 06:24:33;;;;;;;1.30;1.20;;;14.80;99.80;;;;;;4975361;28;20453;-84
2022/05/21 06:27:00;;;;;;;1.60;1.50;;;14.80;99.40;;;;;;4956305;28;20438;-83
2022/05/21 06:29:27;;;;;;;7.00;2.87;;;14.80;98.90;;;;;;4969495;28;20831;-83
2022/05/21 06:31:54;;;;;;;1.80;1.70;;;14.90;99.50;;;;;;4974626;28;20846;-85
2022/05/21 06:34:20;;;;;;;1.80;1.70;;;14.90;99.90;;;;;;4974950;28;20477;-85
2022/05/21 06:36:47;;;;;;;2.90;1.50;;;15.00;99.90;;;;;;4974171;28;20459;-83
2022/05/21 06:39:15;;;;;;;2.13;1.93;;;15.10;99.90;;;;;;4973908;28;20550;-83
2022/05/21 06:41:42;;;;;;;3.00;1.87;;;15.20;99.90;;;;;;4974087;28;20482;-84
2022/05/21 06:44:09;;;;;;;4.77;2.07;;;15.30;99.50;;;;;;4974502;28;20454;-83
2022/05/21 06:46:36;;;;;;;2.30;1.63;;;15.40;99.70;;;;;;4974276;28;20953;-83
2022/05/21 06:49:03;;;;;;;1.60;1.50;;;15.50;99.30;;;;;;4974368;28;20457;-84
2022/05/21 06:51:30;;;;;;;1.67;1.57;;;15.50;99.60;;;;;;4973907;28;20505;-83
2022/05/21 06:53:57;;;;;;;1.40;1.30;;;15.60;98.10;;;;;;4973963;28;20464;-83
2022/05/21 06:56:27;;;;;;;2.70;1.40;;;15.70;97.70;;;;;;4974547;28;20454;-83
2022/05/21 06:58:57;;;;;;;2.40;1.60;;;15.70;98.40;;;;;;4976966;28;20449;-85
2022/05/21 07:01:24;;;;;;;2.60;1.33;;;15.80;98.30;;;;;;4974641;28;20481;-84
2022/05/21 07:03:51;;;;;;;2.03;1.50;;;15.80;98.00;;;;;;4975469;28;20459;-85
2022/05/21 07:09:03;;;;;;;1.13;1.03;;;15.90;98.30;;;;;;4972546;28;20978;-85
2022/05/21 07:11:37;;;;;;;1.50;1.40;;;15.90;98.10;;;;;;4975604;28;20568;-85
2022/05/21 07:14:08;;;;;;;1.63;1.53;;;16.00;98.90;;;;;;4977448;28;20445;-85
2022/05/21 07:16:35;;;;;;;1.50;1.40;;;16.10;98.90;;;;;;4975698;28;20467;-84
2022/05/21 07:19:02;;;;;;;4.90;1.30;;;16.10;98.80;;;;;;4975100;28;20458;-85
2022/05/21 07:21:29;;;;;;;1.60;1.30;;;16.10;97.80;;;;;;4974499;28;20480;-86
2022/05/21 07:23:57;;;;;;;2.70;1.73;;;16.10;97.50;;;;;;4974244;28;20950;-86
2022/05/21 07:26:24;;;;;;;1.60;1.50;;;16.20;98.60;;;;;;4974171;28;20470;-85
2022/05/21 07:28:52;;;;;;;1.63;1.07;;;16.20;97.70;;;;;;4975428;28;20461;-87
2022/05/21 07:31:19;;;;;;;2.60;1.10;;;16.30;97.60;;;;;;4974876;28;20466;-85
2022/05/21 07:38:54;;;;;;;0.87;0.83;;;16.40;96.60;;;;;;4977918;28;20490;-85
2022/05/21 07:41:26;;;;;;;0.90;0.90;;;16.40;97.10;;;;;;4988328;28;20461;-85
2022/05/21 07:43:55;;;;;;;1.17;1.17;;;16.50;97.20;;;;;;4979650;28;20665;-85
2022/05/21 07:46:21;;;;;;;3.40;1.30;;;16.70;96.50;;;;;;4983472;28;20450;-84
2022/05/21 07:48:48;;;;;;;1.30;1.20;;;16.60;96.70;;;;;;4983536;28;20453;-85
2022/05/21 07:51:18;;;;;;;1.23;1.13;;;16.60;97.10;;;;;;4986197;28;20448;-84
2022/05/21 07:53:45;;;;;;;1.40;1.30;;;16.70;97.30;;;;;;4991144;28;20544;-84
2022/05/21 07:56:11;;;;;;;2.10;0.80;;;16.80;96.20;;;;;;4991029;28;20507;-84
2022/05/21 07:58:39;;;;;;;1.00;1.00;;;16.80;95.90;;;;;;4990781;28;20456;-84
2022/05/21 08:01:08;;;;;;;1.67;1.10;;;16.90;95.30;;;;;;4990182;28;20484;-84
2022/05/21 08:03:35;;;;;;;0.90;0.90;;;16.80;95.80;;;;;;4988654;28;20471;-84
2022/05/21 08:06:01;;;;;;;0.97;0.97;;;16.90;96.60;;;;;;4986928;28;20480;-85
2022/05/21 08:08:28;;;;;;;1.13;0.83;;;17.00;96.60;;;;;;4988171;28;20466;-85
2022/05/21 08:10:55;;;;;;;1.43;1.33;;;17.10;95.70;;;;;;4987794;28;20458;-85
2022/05/21 08:13:22;;;;;;;0.97;0.97;;;16.90;95.50;;;;;;4988248;28;20485;-86
2022/05/21 08:15:49;;;;;;;0.90;0.90;;;16.90;95.50;;;;;;4987477;28;20486;-86
2022/05/21 08:18:17;;;;;;;1.23;0.93;;;17.00;95.70;;;;;;4986559;28;20457;-86
2022/05/21 08:20:49;;;;;;;3.23;1.40;;;17.00;94.70;;;;;;4985089;28;20463;-86
2022/05/21 08:28:47;;;;;;;1.23;1.13;;;17.10;95.90;;;;;;4984110;28;20450;-87
2022/05/21 08:31:14;;;;;;;5.40;1.73;;;17.30;96.50;;;;;;4997140;28;20460;-87
2022/05/21 08:33:42;;;;;;;1.10;1.00;;;17.40;95.60;;;;;;4979226;28;20481;-87
2022/05/21 08:36:09;;;;;;;1.80;1.07;;;17.50;94.50;;;;;;4981504;28;20999;-87
2022/05/21 08:38:36;;;;;;;1.13;1.03;;;17.50;94.40;;;;;;4976602;28;20524;-88
2022/05/21 08:41:05;;;;;;;1.40;1.27;;;17.60;94.70;;;;;;4976257;28;20457;-89
2022/05/21 08:43:43;;;;;;;4.33;0.90;;;17.60;94.60;;;;;;4976123;28;20479;-89
2022/05/21 08:46:19;;;;;;;1.53;1.43;;;17.50;93.40;;;;;;4976654;28;20814;-88
2022/05/21 08:48:55;;;;;;;0.87;0.77;;;17.60;93.40;;;;;;4979096;28;20450;-86
2022/05/21 08:51:27;;;;;;;0.80;0.80;;;17.50;93.80;;;;;;4981850;28;20939;-88
2022/05/21 08:57:10;;;;;;;2.40;1.10;;;17.80;93.50;;;;;;4937338;28;20527;-89
2022/05/21 08:59:46;;;;;;;1.30;1.20;;;17.80;94.50;;;;;;4976424;28;20459;-89
2022/05/21 09:02:16;;;;;;;1.47;1.37;;;17.90;94.40;;;;;;4968597;28;20963;-89
2022/05/21 09:04:45;;;;;;;1.33;1.10;;;17.90;93.60;;;;;;4970314;28;20506;-88
2022/05/21 09:07:19;;;;;;;1.57;1.10;;;18.00;94.00;;;;;;4976619;28;20467;-89
2022/05/21 09:10:00;;;;;;;0.93;0.93;;;18.10;93.80;;;;;;4975930;28;20456;-88
2022/05/21 09:12:40;;;;;;;0.87;0.87;;;18.20;93.50;;;;;;4975230;28;20455;-88
2022/05/21 09:16:54;;;;;;;1.20;1.10;;;18.20;92.80;;;;;;4975920;28;20506;-89
2022/05/21 09:18:06;;;;;;;0.80;0.80;;;18.30;92.20;;;;;;4982575;28;20442;-88
2022/05/21 09:20:49;;;;;;;0.77;0.70;;;18.40;92.20;;;;;;4984361;28;20454;-88
2022/05/21 09:23:21;;;;;;;4.53;1.33;;;18.30;91.90;;;;;;4956281;29;20552;-88
2022/05/21 09:26:05;;;;;;;1.70;1.60;;;18.50;91.90;;;;;;4966590;28;20531;-89
2022/05/21 09:28:37;;;;;;;0.77;0.70;;;18.50;90.90;;;;;;4976004;28;20446;-88
2022/05/21 09:31:06;;;;;;;0.93;0.67;;;18.50;91.10;;;;;;4975017;28;20823;-88
2022/05/21 09:33:40;;;;;;;0.80;0.80;;;18.60;90.70;;;;;;4975415;28;20842;-89
2022/05/21 09:36:09;;;;;;;1.03;0.90;;;18.70;91.50;;;;;;4975856;28;20581;-88
2022/05/21 09:38:50;;;;;;;0.60;0.60;;;18.80;89.40;;;;;;4975209;28;20464;-88
2022/05/21 09:41:19;;;;;;;0.90;0.90;;;18.80;90.70;;;;;;4975255;28;20810;-89
2022/05/21 09:46:39;;;;;;;1.20;0.93;;;19.00;89.10;;;;;;4975134;28;20525;-87
2022/05/21 09:49:22;;;;;;;0.73;0.70;;;19.00;90.40;;;;;;4975677;28;20467;-89
2022/05/21 09:52:01;;;;;;;1.37;0.83;;;19.10;89.70;;;;;;4975013;28;20441;-88
2022/05/21 09:54:30;;;;;;;2.63;0.90;;;19.20;90.00;;;;;;4975135;28;20457;-89
2022/05/21 09:56:59;;;;;;;1.13;0.60;;;19.20;87.30;;;;;;4975364;28;20503;-89
2022/05/21 09:59:28;;;;;;;0.50;0.40;;;19.30;85.90;;;;;;4975450;28;20464;-89
2022/05/21 10:02:19;;;;;;;0.80;0.80;;;19.40;87.00;;;;;;4975137;28;20460;-88
2022/05/21 10:04:51;;;;;;;0.90;0.80;;;19.50;88.00;;;;;;4975429;28;20467;-89
2022/05/21 10:11:14;;;;;;;0.60;0.50;;;19.80;83.40;;;;;;4974882;28;20421;-89
2022/05/21 10:14:12;;;;;;;0.80;0.63;;;20.00;84.20;;;;;;4975549;28;20915;-89
2022/05/21 10:20:33;;;;;;;0.70;0.70;;;20.40;81.40;;;;;;4894837;29;20461;-88
2022/05/21 10:23:28;;;;;;;1.10;0.73;;;20.40;81.70;;;;;;4953543;28;20471;-89
2022/05/21 10:33:20;;;;;;;0.77;0.77;;;20.80;79.60;;;;;;4891429;28;20578;-91
2022/05/21 10:36:18;;;;;;;0.80;0.80;;;21.10;82.00;;;;;;4942581;28;20491;-90
2022/05/21 10:39:35;;;;;;;;;;;;;;;;;;;;;
2022/05/21 10:46:20;;;;;;;0.70;0.70;;;21.10;77.50;;;;;;4766585;29;21201;-89
2022/05/21 13:56:00;;;;;;;2.03;1.10;;;29.30;45.00;;;;;;4736493;30;20603;-88
2022/05/21 14:05:33;;;;;;;0.70;0.70;;;27.90;46.10;;;;;;4721502;30;20803;-87
2022/05/21 14:08:09;;;;;;;2.73;1.53;;;28.10;46.60;;;;;;4783805;29;20465;-81
2022/05/21 14:10:43;;;;;;;1.30;1.10;;;27.90;46.40;;;;;;4903186;29;20838;-81
2022/05/21 14:13:27;;;;;;;1.73;1.00;;;27.80;47.60;;;;;;4942393;29;20509;-81
2022/05/21 14:15:55;;;;;;;1.10;0.93;;;26.90;48.00;;;;;;4942334;29;20451;-82
2022/05/21 14:18:29;;;;;;;0.80;0.80;;;26.30;47.90;;;;;;4942309;29;20461;-82
2022/05/21 14:21:06;;;;;;;0.80;0.80;;;26.10;50.00;;;;;;4938020;29;20467;-81
2022/05/21 14:23:36;;;;;;;1.00;0.83;;;26.10;49.70;;;;;;4941667;29;20835;-81
2022/05/21 14:26:31;;;;;;;1.27;0.70;;;26.30;48.70;;;;;;4941365;29;20485;-82
2022/05/21 14:28:59;;;;;;;1.40;1.13;;;26.40;48.90;;;;;;4940438;29;20457;-83
2022/05/21 14:31:35;;;;;;;2.57;1.27;;;26.40;49.20;;;;;;4940730;29;20453;-82
2022/05/21 14:34:05;;;;;;;1.63;1.07;;;25.90;49.30;;;;;;4939748;29;20810;-82
2022/05/21 14:36:39;;;;;;;0.67;0.67;;;25.40;49.90;;;;;;4942694;29;20874;-82
2022/05/21 14:39:06;;;;;;;1.07;0.90;;;24.90;50.10;;;;;;4938401;29;20465;-82
2022/05/21 14:41:37;;;;;;;2.93;1.20;;;24.70;51.60;;;;;;4942794;29;20922;-84
2022/05/21 14:44:05;;;;;;;1.20;0.80;;;24.70;52.80;;;;;;4939989;29;20477;-82
2022/05/21 14:49:17;;;;;;;4.30;1.67;;;24.90;52.10;;;;;;4941236;29;20776;-82
2022/05/21 14:54:34;;;;;;;1.40;1.40;;;24.60;51.80;;;;;;4941286;29;20438;-82
2022/05/21 14:57:03;;;;;;;1.30;0.80;;;24.50;52.20;;;;;;4936126;29;20455;-82
2022/05/21 14:59:30;;;;;;;0.97;0.97;;;24.80;51.90;;;;;;4942171;29;20451;-85
2022/05/21 15:01:57;;;;;;;3.30;0.90;;;24.80;52.70;;;;;;4940406;29;20453;-82
2022/05/21 15:04:24;;;;;;;1.70;1.50;;;24.90;52.30;;;;;;4941620;29;20474;-82
2022/05/21 15:06:52;;;;;;;1.30;1.20;;;25.10;51.80;;;;;;4937487;29;20573;-82
2022/05/21 15:09:18;;;;;;;1.70;0.90;;;24.80;50.80;;;;;;4943160;29;20668;-82
2022/05/21 15:11:47;;;;;;;2.40;1.53;;;24.80;51.90;;;;;;4941880;29;21224;-82
2022/05/21 15:14:16;;;;;;;2.97;1.03;;;24.70;51.90;;;;;;4941292;29;20478;-82
2022/05/21 15:16:42;;;;;;;2.10;0.73;;;24.60;52.20;;;;;;4942178;29;20458;-82
2022/05/21 15:19:09;;;;;;;1.10;1.00;;;24.20;52.50;;;;;;4941148;29;20457;-82
2022/05/21 15:21:39;;;;;;;1.77;1.10;;;23.90;52.90;;;;;;4941670;29;20513;-81
2022/05/21 15:24:06;;;;;;;1.30;1.00;;;23.70;53.60;;;;;;4940277;29;20552;-82
2022/05/21 15:26:33;;;;;;;1.37;0.70;;;23.30;53.40;;;;;;4941827;29;20999;-81
2022/05/21 15:29:00;;;;;;;0.93;0.83;;;23.00;53.80;;;;;;4941158;29;20453;-81
2022/05/21 15:31:30;;;;;;;1.03;0.90;;;22.90;55.60;;;;;;4940461;29;20454;-81
2022/05/21 15:33:58;;;;;;;1.70;1.13;;;22.90;55.60;;;;;;4940352;29;20477;-81
2022/05/21 15:36:25;;;;;;;1.03;0.93;;;22.60;55.00;;;;;;4940495;29;20816;-80
2022/05/21 15:38:52;;;;;;;1.20;1.10;;;22.40;56.60;;;;;;4941085;29;20462;-81
2022/05/21 15:41:24;;;;;;;1.33;1.23;;;22.30;55.90;;;;;;4942291;29;20453;-80
2022/05/21 15:43:52;;;;;;;2.90;1.23;;;22.20;56.20;;;;;;4940616;29;20478;-81
2022/05/21 15:46:19;;;;;;;1.30;1.10;;;22.30;56.40;;;;;;4931746;29;21001;-81
2022/05/21 15:48:47;;;;;;;1.30;1.20;;;22.30;56.60;;;;;;4942452;29;20461;-82
2022/05/21 15:51:17;;;;;;;1.60;1.50;;;22.20;57.40;;;;;;4943365;29;20453;-82
2022/05/21 15:53:45;;;;;;;1.27;1.10;;;22.20;58.00;;;;;;4943394;29;20480;-82
2022/05/21 15:56:12;;;;;;;1.20;1.10;;;22.10;57.70;;;;;;4941444;29;20539;-82
2022/05/21 15:58:39;;;;;;;0.83;0.80;;;21.90;58.30;;;;;;4942178;29;20458;-81
2022/05/21 16:01:05;;;;;;;0.97;0.97;;;22.00;59.00;;;;;;4941608;29;20468;-82
2022/05/21 16:03:32;;;;;;;1.33;1.23;;;22.00;59.40;;;;;;4942883;29;20488;-84
2022/05/21 16:06:00;;;;;;;1.27;1.17;;;22.20;60.00;;;;;;4941066;29;20987;-81
2022/05/21 16:08:27;;;;;;;2.73;1.93;;;22.50;59.90;;;;;;4942125;29;20457;-80
2022/05/21 16:10:54;;;;;;;3.43;1.60;;;22.90;59.20;;;;;;4945941;29;20460;-82
2022/05/21 16:13:21;;;;;;;2.00;1.90;;;23.10;58.20;;;;;;4956000;29;20478;-82
2022/05/21 16:15:48;;;;;;;1.27;1.17;;;23.30;58.70;;;;;;4954840;29;20470;-82
2022/05/21 16:18:16;;;;;;;3.43;1.40;;;23.80;57.00;;;;;;4953168;29;20443;-82
2022/05/21 16:20:45;;;;;;;1.67;1.00;;;24.50;55.60;;;;;;4954939;29;20462;-82
2022/05/21 16:23:14;;;;;;;1.00;1.00;;;25.20;54.70;;;;;;4956440;29;20575;-82
2022/05/21 16:25:41;;;;;;;2.40;1.03;;;25.80;54.00;;;;;;4955772;29;20467;-83
2022/05/21 16:28:09;;;;;;;1.67;1.00;;;26.40;52.50;;;;;;4955487;29;20468;-82
2022/05/21 16:30:35;;;;;;;1.43;1.30;;;27.00;51.80;;;;;;4955235;29;20456;-83
2022/05/21 16:33:03;;;;;;;1.40;1.30;;;27.40;51.10;;;;;;4953562;29;20459;-82
2022/05/21 16:35:29;;;;;;;1.17;0.80;;;27.60;50.80;;;;;;4955119;29;20635;-81
2022/05/21 16:37:56;;;;;;;0.80;0.80;;;27.90;50.80;;;;;;4954598;29;20478;-82
2022/05/21 16:40:24;;;;;;;1.43;1.03;;;28.50;50.30;;;;;;4955081;29;20460;-82
2022/05/21 16:42:51;;;;;;;1.60;1.17;;;28.00;48.40;;;;;;4955492;29;20450;-82
2022/05/21 16:45:21;;;;;;;1.37;1.27;;;28.10;50.00;;;;;;4953782;29;20448;-82
2022/05/21 16:47:50;;;;;;;1.10;1.00;;;28.80;48.90;;;;;;4955228;29;20547;-81
2022/05/21 16:50:18;;;;;;;4.10;1.70;;;29.20;47.90;;;;;;4952550;29;20456;-82
2022/05/21 16:52:45;;;;;;;1.70;1.00;;;29.40;46.60;;;;;;4955704;29;20460;-82
2022/05/21 16:55:11;;;;;;;1.50;1.10;;;29.20;47.00;;;;;;4936684;29;20473;-82
2022/05/21 16:57:40;;;;;;;1.13;1.03;;;27.90;47.50;;;;;;4936699;29;20490;-81
2022/05/21 17:00:08;;;;;;;2.80;1.63;;;28.00;49.30;;;;;;4955238;29;20548;-82
2022/05/21 17:02:35;;;;;;;1.50;1.40;;;28.70;48.70;;;;;;4956106;29;20454;-82
2022/05/21 17:05:02;;;;;;;2.17;1.47;;;28.60;48.70;;;;;;4955785;29;20540;-82
2022/05/21 17:07:29;;;;;;;1.00;1.00;;;28.60;48.00;;;;;;4955467;29;20462;-82
2022/05/21 17:09:56;;;;;;;1.17;1.00;;;28.50;48.60;;;;;;4955434;29;20551;-82
2022/05/21 17:12:26;;;;;;;1.40;1.30;;;28.70;48.10;;;;;;4955897;29;21005;-82
2022/05/21 17:14:54;;;;;;;2.40;1.23;;;28.50;48.10;;;;;;4953167;29;20488;-81
2022/05/21 17:17:21;;;;;;;2.03;1.10;;;28.50;47.90;;;;;;4951075;29;20489;-82
2022/05/21 17:19:48;;;;;;;1.00;0.77;;;27.90;48.90;;;;;;4949182;29;20458;-81
2022/05/21 17:22:17;;;;;;;1.43;0.97;;;27.40;48.60;;;;;;4947201;29;20465;-81
2022/05/21 17:24:44;;;;;;;1.60;1.07;;;26.40;48.80;;;;;;4947975;29;20505;-81
2022/05/21 17:32:50;;;;;;;1.93;1.03;;;23.60;53.20;;;;;;4951255;29;20461;-80
2022/05/21 17:35:18;;;;;;;1.63;1.30;;;23.00;54.80;;;;;;4956330;29;20491;-80
2022/05/21 17:37:45;;;;;;;1.60;1.10;;;22.40;56.20;;;;;;4956340;29;20487;-80
2022/05/21 17:40:12;;;;;;;1.97;1.17;;;22.10;57.10;;;;;;4955726;29;20958;-79
2022/05/21 17:42:39;;;;;;;1.20;1.10;;;21.90;57.70;;;;;;4956074;29;20456;-80
2022/05/21 17:45:10;;;;;;;1.83;1.20;;;21.60;58.60;;;;;;4955213;29;20481;-80
2022/05/21 17:47:37;;;;;;;3.80;1.30;;;21.30;59.50;;;;;;4955971;29;20460;-80
2022/05/21 17:50:06;;;;;;;1.00;0.90;;;21.30;60.40;;;;;;4955982;29;20461;-80